BJN095 HLTQ-ESMX
Flight info
| Callsign | BJN095 |
|---|---|
| Flight time | 4h 4m |
| Altitude | 36000 |
| Route | TOKBU B727 LAB N708 RASNO/N0454F370 M1 ARLOS/N0456F360 UB1 ATV DCT SKP/N0451F380 UL617 TSL UM987 ATFIR N133 LOMOS DCT OVDOT DCT SODGO DCT NEKUL DCT EKNAB DCT VASIS DCT OLMIP DCT EVRIK DCT BUXLE DCT GANNA DCT BAVMA DCT ADUKU DCT NARKA DCT PERIT DCT KEKED DCT KOJOT DCT RAZEC DCT LENOV N133 PENOR DCT JX |
| Aircraft | B737/M-SDE2E3FGHIRWXY/LB1 |
Departure
| Time | 2026-05-06 13:28 |
|---|---|
| Airport | Tobruk International Airport (HLTQ) |
Arrival
| Time | 2026-05-06 17:32 |
|---|---|
| Airport | Växjö Kronoberg Airport (ESMX) |
| Time | Latitude | Longitude | Altitude | Speed | Heading |
|---|---|---|---|---|---|
| 2026-05-06 13:17 | 31.86324 | 23.91787 | 528 ft | 0 kts | 204° |
| 2026-05-06 13:20 | 31.86328 | 23.91789 | 528 ft | 4 kts | 204° |
| 2026-05-06 13:20 | 31.86350 | 23.91803 | 527 ft | 4 kts | 212° |
| 2026-05-06 13:20 | 31.86370 | 23.91819 | 528 ft | 4 kts | 219° |
| 2026-05-06 13:21 | 31.86383 | 23.91830 | 528 ft | 2 kts | 185° |
| 2026-05-06 13:21 | 31.86394 | 23.91828 | 528 ft | 2 kts | 148° |
| 2026-05-06 13:21 | 31.86397 | 23.91826 | 528 ft | 0 kts | 146° |
| 2026-05-06 13:22 | 31.86396 | 23.91827 | 530 ft | 2 kts | 144° |
| 2026-05-06 13:22 | 31.86364 | 23.91866 | 528 ft | 11 kts | 130° |
| 2026-05-06 13:23 | 31.86295 | 23.91965 | 528 ft | 20 kts | 129° |
| 2026-05-06 13:23 | 31.86176 | 23.92101 | 528 ft | 28 kts | 143° |
| 2026-05-06 13:23 | 31.85993 | 23.92192 | 528 ft | 28 kts | 169° |
| 2026-05-06 13:23 | 31.85806 | 23.92218 | 528 ft | 26 kts | 175° |
| 2026-05-06 13:24 | 31.85629 | 23.92235 | 528 ft | 25 kts | 177° |
| 2026-05-06 13:24 | 31.85533 | 23.92224 | 529 ft | 7 kts | 209° |
| 2026-05-06 13:24 | 31.85515 | 23.92176 | 528 ft | 8 kts | 269° |
| 2026-05-06 13:24 | 31.85516 | 23.92090 | 528 ft | 14 kts | 270° |
| 2026-05-06 13:25 | 31.85514 | 23.91940 | 528 ft | 22 kts | 268° |
| 2026-05-06 13:25 | 31.85509 | 23.91733 | 528 ft | 28 kts | 268° |
| 2026-05-06 13:25 | 31.85503 | 23.91477 | 528 ft | 34 kts | 269° |
| 2026-05-06 13:25 | 31.85499 | 23.91176 | 528 ft | 39 kts | 269° |
| 2026-05-06 13:26 | 31.85496 | 23.90862 | 528 ft | 37 kts | 269° |
| 2026-05-06 13:26 | 31.85491 | 23.90573 | 528 ft | 34 kts | 269° |
| 2026-05-06 13:26 | 31.85485 | 23.90296 | 528 ft | 34 kts | 268° |
| 2026-05-06 13:26 | 31.85477 | 23.90015 | 528 ft | 35 kts | 268° |
| 2026-05-06 13:27 | 31.85470 | 23.89736 | 528 ft | 30 kts | 268° |
| 2026-05-06 13:27 | 31.85513 | 23.89627 | 529 ft | 13 kts | 13° |
| 2026-05-06 13:27 | 31.85641 | 23.89684 | 529 ft | 45 kts | 20° |
| 2026-05-06 13:27 | 31.86194 | 23.89921 | 528 ft | 121 kts | 20° |
| 2026-05-06 13:28 | 31.87166 | 23.90340 | 740 ft | 164 kts | 21° |
| 2026-05-06 13:28 | 31.88254 | 23.90770 | 1668 ft | 162 kts | 8° |
| 2026-05-06 13:28 | 31.89369 | 23.90536 | 2433 ft | 175 kts | 329° |
| 2026-05-06 13:28 | 31.90242 | 23.89380 | 2784 ft | 208 kts | 295° |
| 2026-05-06 13:29 | 31.90824 | 23.87680 | 3102 ft | 239 kts | 290° |
| 2026-05-06 13:29 | 31.91437 | 23.85726 | 3555 ft | 263 kts | 289° |
| 2026-05-06 13:29 | 31.92074 | 23.83690 | 4575 ft | 266 kts | 289° |
| 2026-05-06 13:29 | 31.92688 | 23.81619 | 5599 ft | 270 kts | 289° |
| 2026-05-06 13:30 | 31.93339 | 23.79531 | 6632 ft | 273 kts | 291° |
| 2026-05-06 13:30 | 31.94007 | 23.77427 | 7614 ft | 275 kts | 292° |
| 2026-05-06 13:30 | 31.94670 | 23.75340 | 8560 ft | 278 kts | 292° |
| 2026-05-06 13:30 | 31.95352 | 23.73176 | 9464 ft | 283 kts | 292° |
| 2026-05-06 13:31 | 31.96039 | 23.70993 | 10373 ft | 286 kts | 292° |
| 2026-05-06 13:31 | 31.96754 | 23.68718 | 10785 ft | 309 kts | 292° |
| 2026-05-06 13:31 | 31.97531 | 23.66244 | 10983 ft | 335 kts | 291° |
| 2026-05-06 13:31 | 31.98369 | 23.63571 | 11172 ft | 360 kts | 291° |
| 2026-05-06 13:32 | 31.99259 | 23.60725 | 11509 ft | 376 kts | 291° |
| 2026-05-06 13:32 | 32.00168 | 23.57815 | 12203 ft | 380 kts | 291° |
| 2026-05-06 13:32 | 32.01271 | 23.54980 | 12967 ft | 382 kts | 300° |
| 2026-05-06 13:32 | 32.02628 | 23.52275 | 13726 ft | 384 kts | 301° |
| 2026-05-06 13:33 | 32.04009 | 23.49567 | 14381 ft | 387 kts | 302° |
| 2026-05-06 13:33 | 32.05418 | 23.46848 | 15023 ft | 390 kts | 302° |
| 2026-05-06 13:33 | 32.06840 | 23.44106 | 15658 ft | 393 kts | 302° |
| 2026-05-06 13:33 | 32.08266 | 23.41343 | 16288 ft | 396 kts | 301° |
| 2026-05-06 13:34 | 32.09681 | 23.38587 | 16902 ft | 399 kts | 301° |
| 2026-05-06 13:34 | 32.11117 | 23.35776 | 17513 ft | 402 kts | 301° |
| 2026-05-06 13:34 | 32.12562 | 23.32936 | 18113 ft | 405 kts | 301° |
| 2026-05-06 13:34 | 32.14017 | 23.30069 | 18658 ft | 408 kts | 301° |
| 2026-05-06 13:35 | 32.15479 | 23.27184 | 19154 ft | 411 kts | 301° |
| 2026-05-06 13:35 | 32.16949 | 23.24280 | 19654 ft | 413 kts | 301° |
| 2026-05-06 13:35 | 32.18425 | 23.21361 | 20144 ft | 416 kts | 301° |
| 2026-05-06 13:35 | 32.19917 | 23.18407 | 20643 ft | 419 kts | 300° |
| 2026-05-06 13:36 | 32.21417 | 23.15435 | 21122 ft | 422 kts | 300° |
| 2026-05-06 13:36 | 32.22922 | 23.12452 | 21612 ft | 425 kts | 300° |
| 2026-05-06 13:36 | 32.24422 | 23.09476 | 22071 ft | 427 kts | 300° |
| 2026-05-06 13:36 | 32.25948 | 23.06445 | 22520 ft | 430 kts | 300° |
| 2026-05-06 13:37 | 32.27484 | 23.03394 | 22960 ft | 433 kts | 300° |
| 2026-05-06 13:37 | 32.29026 | 23.00327 | 23382 ft | 436 kts | 300° |
| 2026-05-06 13:37 | 32.30576 | 22.97243 | 23779 ft | 438 kts | 300° |
| 2026-05-06 13:37 | 32.32137 | 22.94133 | 24150 ft | 440 kts | 300° |
| 2026-05-06 13:38 | 32.33699 | 22.91018 | 24537 ft | 441 kts | 300° |
| 2026-05-06 13:38 | 32.35266 | 22.87893 | 24913 ft | 443 kts | 300° |
| 2026-05-06 13:38 | 32.36841 | 22.84748 | 25261 ft | 445 kts | 300° |
| 2026-05-06 13:38 | 32.38416 | 22.81600 | 25599 ft | 447 kts | 300° |
| 2026-05-06 13:39 | 32.40005 | 22.78422 | 25931 ft | 448 kts | 300° |
| 2026-05-06 13:39 | 32.41595 | 22.75240 | 26261 ft | 450 kts | 300° |
| 2026-05-06 13:39 | 32.43186 | 22.72051 | 26585 ft | 451 kts | 300° |
| 2026-05-06 13:39 | 32.44785 | 22.68845 | 26897 ft | 453 kts | 300° |
| 2026-05-06 13:40 | 32.46388 | 22.65626 | 27276 ft | 453 kts | 300° |
| 2026-05-06 13:40 | 32.47982 | 22.62426 | 27746 ft | 450 kts | 300° |
| 2026-05-06 13:40 | 32.49567 | 22.59238 | 28277 ft | 447 kts | 300° |
| 2026-05-06 13:40 | 32.51140 | 22.56072 | 28802 ft | 445 kts | 300° |
| 2026-05-06 13:41 | 32.52705 | 22.52921 | 29278 ft | 443 kts | 300° |
| 2026-05-06 13:41 | 32.54265 | 22.49776 | 29810 ft | 441 kts | 300° |
| 2026-05-06 13:41 | 32.55799 | 22.46681 | 30257 ft | 440 kts | 300° |
| 2026-05-06 13:41 | 32.57343 | 22.43564 | 30617 ft | 439 kts | 300° |
| 2026-05-06 13:42 | 32.58890 | 22.40437 | 30922 ft | 440 kts | 300° |
| 2026-05-06 13:42 | 32.60439 | 22.37303 | 31263 ft | 439 kts | 300° |
| 2026-05-06 13:42 | 32.61982 | 22.34180 | 31623 ft | 439 kts | 299° |
| 2026-05-06 13:42 | 32.63524 | 22.31056 | 31954 ft | 438 kts | 299° |
| 2026-05-06 13:43 | 32.65061 | 22.27939 | 32278 ft | 438 kts | 299° |
| 2026-05-06 13:43 | 32.66602 | 22.24811 | 32585 ft | 438 kts | 299° |
| 2026-05-06 13:43 | 32.68139 | 22.21690 | 32910 ft | 437 kts | 299° |
| 2026-05-06 13:43 | 32.69668 | 22.18580 | 33219 ft | 437 kts | 299° |
| 2026-05-06 13:44 | 32.71202 | 22.15459 | 33545 ft | 436 kts | 299° |
| 2026-05-06 13:44 | 32.72729 | 22.12350 | 33844 ft | 436 kts | 299° |
| 2026-05-06 13:44 | 32.74241 | 22.09268 | 34116 ft | 436 kts | 299° |
| 2026-05-06 13:44 | 32.75809 | 22.06179 | 34372 ft | 436 kts | 304° |
| 2026-05-06 13:45 | 32.77856 | 22.03517 | 34639 ft | 439 kts | 317° |
| 2026-05-06 13:45 | 32.83143 | 21.99930 | 35240 ft | 443 kts | 339° |
| 2026-05-06 13:45 | 32.86095 | 21.98863 | 35500 ft | 443 kts | 340° |
| 2026-05-06 13:46 | 32.89061 | 21.97870 | 35724 ft | 443 kts | 341° |
| 2026-05-06 13:46 | 32.92036 | 21.96891 | 35943 ft | 443 kts | 341° |
| 2026-05-06 13:46 | 32.95006 | 21.95904 | 36204 ft | 442 kts | 340° |
| 2026-05-06 13:46 | 32.97955 | 21.94906 | 36468 ft | 440 kts | 340° |
| 2026-05-06 13:47 | 33.00903 | 21.93892 | 36704 ft | 439 kts | 340° |
| 2026-05-06 13:47 | 33.03836 | 21.92869 | 36899 ft | 439 kts | 340° |
| 2026-05-06 13:47 | 33.06728 | 21.91854 | 37112 ft | 439 kts | 340° |
| 2026-05-06 13:47 | 33.09652 | 21.90824 | 37339 ft | 438 kts | 339° |
| 2026-05-06 13:48 | 33.12611 | 21.89780 | 37579 ft | 437 kts | 339° |
| 2026-05-06 13:48 | 33.15478 | 21.88768 | 37771 ft | 436 kts | 339° |
| 2026-05-06 13:48 | 33.18394 | 21.87738 | 37961 ft | 436 kts | 339° |
| 2026-05-06 13:48 | 33.21304 | 21.86709 | 38106 ft | 437 kts | 339° |
| 2026-05-06 13:49 | 33.27162 | 21.84636 | 38111 ft | 438 kts | 339° |
| 2026-05-06 13:49 | 33.32978 | 21.82579 | 38103 ft | 435 kts | 339° |
| 2026-05-06 13:50 | 33.38773 | 21.80525 | 38105 ft | 433 kts | 339° |
| 2026-05-06 13:50 | 33.44548 | 21.78475 | 38107 ft | 431 kts | 339° |
| 2026-05-06 13:51 | 33.50262 | 21.76443 | 38112 ft | 431 kts | 339° |
| 2026-05-06 13:51 | 33.56023 | 21.74392 | 38116 ft | 432 kts | 339° |
| 2026-05-06 13:52 | 33.61806 | 21.72330 | 38118 ft | 434 kts | 339° |
| 2026-05-06 13:52 | 33.67601 | 21.70261 | 38115 ft | 436 kts | 339° |
| 2026-05-06 13:53 | 33.73430 | 21.68177 | 38119 ft | 437 kts | 339° |
| 2026-05-06 13:53 | 33.79267 | 21.66088 | 38117 ft | 439 kts | 339° |
| 2026-05-06 13:54 | 33.85121 | 21.63989 | 38112 ft | 440 kts | 339° |
| 2026-05-06 13:54 | 33.90953 | 21.61895 | 38115 ft | 440 kts | 339° |
| 2026-05-06 13:55 | 33.96824 | 21.59785 | 38117 ft | 440 kts | 339° |
| 2026-05-06 13:55 | 34.02691 | 21.57673 | 38113 ft | 440 kts | 339° |
| 2026-05-06 13:56 | 34.08564 | 21.55555 | 38112 ft | 440 kts | 339° |
| 2026-05-06 13:56 | 34.14434 | 21.53435 | 38119 ft | 439 kts | 339° |
| 2026-05-06 13:57 | 34.20288 | 21.51318 | 38118 ft | 439 kts | 339° |
| 2026-05-06 13:57 | 34.26305 | 21.50046 | 38134 ft | 449 kts | 2° |
| 2026-05-06 13:58 | 34.29362 | 21.50910 | 38101 ft | 458 kts | 19° |
| 2026-05-06 13:58 | 34.32116 | 21.52804 | 38130 ft | 466 kts | 36° |
| 2026-05-06 13:58 | 34.34376 | 21.55649 | 38121 ft | 473 kts | 52° |
| 2026-05-06 13:58 | 34.35911 | 21.59196 | 38106 ft | 479 kts | 71° |
| 2026-05-06 13:59 | 34.37511 | 21.67038 | 38110 ft | 481 kts | 76° |
| 2026-05-06 13:59 | 34.38930 | 21.74956 | 38103 ft | 482 kts | 76° |
| 2026-05-06 14:00 | 34.40408 | 21.82902 | 38109 ft | 483 kts | 75° |
| 2026-05-06 14:00 | 34.41922 | 21.90776 | 38117 ft | 483 kts | 75° |
| 2026-05-06 14:01 | 34.43458 | 21.98713 | 38126 ft | 484 kts | 75° |
| 2026-05-06 14:01 | 34.44730 | 22.05314 | 38111 ft | 484 kts | 75° |
| 2026-05-06 14:02 | 34.46253 | 22.13254 | 38113 ft | 483 kts | 75° |
| 2026-05-06 14:02 | 34.47768 | 22.21194 | 38115 ft | 483 kts | 75° |
| 2026-05-06 14:03 | 34.49274 | 22.29116 | 38120 ft | 482 kts | 75° |
| 2026-05-06 14:03 | 34.50771 | 22.37020 | 38121 ft | 481 kts | 75° |
| 2026-05-06 14:04 | 34.52263 | 22.44924 | 38118 ft | 480 kts | 75° |
| 2026-05-06 14:04 | 34.53737 | 22.52767 | 38119 ft | 479 kts | 75° |
| 2026-05-06 14:05 | 34.55212 | 22.60639 | 38122 ft | 479 kts | 75° |
| 2026-05-06 14:05 | 34.56682 | 22.68519 | 38117 ft | 479 kts | 75° |
| 2026-05-06 14:06 | 34.58145 | 22.76388 | 38118 ft | 478 kts | 76° |
| 2026-05-06 14:06 | 34.59606 | 22.84279 | 38117 ft | 478 kts | 75° |
| 2026-05-06 14:07 | 34.61062 | 22.92167 | 38120 ft | 479 kts | 76° |
| 2026-05-06 14:07 | 34.63297 | 22.99643 | 38134 ft | 472 kts | 56° |
| 2026-05-06 14:08 | 34.67403 | 23.05747 | 38130 ft | 465 kts | 39° |
| 2026-05-06 14:08 | 34.72210 | 23.11022 | 38126 ft | 465 kts | 38° |
| 2026-05-06 14:09 | 34.77024 | 23.16303 | 38114 ft | 466 kts | 39° |
| 2026-05-06 14:09 | 34.81809 | 23.21643 | 38117 ft | 467 kts | 39° |
| 2026-05-06 14:10 | 34.86549 | 23.26981 | 38120 ft | 467 kts | 39° |
| 2026-05-06 14:10 | 34.91320 | 23.32367 | 38118 ft | 467 kts | 39° |
| 2026-05-06 14:11 | 34.96097 | 23.37765 | 38120 ft | 467 kts | 39° |
| 2026-05-06 14:11 | 35.00868 | 23.43163 | 38120 ft | 467 kts | 39° |
| 2026-05-06 14:12 | 35.05590 | 23.48516 | 38115 ft | 467 kts | 39° |
| 2026-05-06 14:12 | 35.10341 | 23.53909 | 38115 ft | 466 kts | 39° |
| 2026-05-06 14:13 | 35.15084 | 23.59303 | 38114 ft | 465 kts | 39° |
| 2026-05-06 14:13 | 35.19868 | 23.64635 | 38096 ft | 462 kts | 31° |
| 2026-05-06 14:14 | 35.22670 | 23.66421 | 38138 ft | 450 kts | 14° |
| 2026-05-06 14:14 | 35.25700 | 23.67234 | 38100 ft | 444 kts | 0° |
| 2026-05-06 14:14 | 35.28750 | 23.67090 | 38124 ft | 437 kts | 348° |
| 2026-05-06 14:14 | 35.31748 | 23.66512 | 38119 ft | 435 kts | 347° |
| 2026-05-06 14:15 | 35.37681 | 23.65214 | 38120 ft | 436 kts | 346° |
| 2026-05-06 14:15 | 35.43656 | 23.63930 | 38113 ft | 437 kts | 347° |
| 2026-05-06 14:16 | 35.49660 | 23.62694 | 38109 ft | 438 kts | 347° |
| 2026-05-06 14:16 | 35.55686 | 23.61475 | 38116 ft | 439 kts | 347° |
| 2026-05-06 14:17 | 35.61717 | 23.60257 | 38116 ft | 439 kts | 347° |
| 2026-05-06 14:17 | 35.67760 | 23.59032 | 38103 ft | 440 kts | 347° |
| 2026-05-06 14:18 | 35.73795 | 23.57807 | 38104 ft | 440 kts | 347° |
| 2026-05-06 14:18 | 35.79840 | 23.56577 | 38103 ft | 439 kts | 347° |
| 2026-05-06 14:19 | 35.85832 | 23.55356 | 38101 ft | 439 kts | 347° |
| 2026-05-06 14:19 | 35.91856 | 23.54126 | 38097 ft | 439 kts | 347° |
| 2026-05-06 14:20 | 35.97885 | 23.52894 | 38098 ft | 438 kts | 347° |
| 2026-05-06 14:20 | 36.03891 | 23.51664 | 38093 ft | 438 kts | 347° |
| 2026-05-06 14:21 | 36.09893 | 23.50433 | 38090 ft | 437 kts | 347° |
| 2026-05-06 14:21 | 36.15909 | 23.49206 | 38081 ft | 437 kts | 347° |
| 2026-05-06 14:22 | 36.21862 | 23.48001 | 38084 ft | 436 kts | 347° |
| 2026-05-06 14:22 | 36.27839 | 23.46785 | 38086 ft | 436 kts | 347° |
| 2026-05-06 14:23 | 36.33822 | 23.45553 | 38080 ft | 436 kts | 347° |
| 2026-05-06 14:23 | 36.39806 | 23.44316 | 38078 ft | 435 kts | 347° |
| 2026-05-06 14:24 | 36.45796 | 23.43078 | 38077 ft | 435 kts | 347° |
| 2026-05-06 14:24 | 36.51773 | 23.41841 | 38072 ft | 435 kts | 347° |
| 2026-05-06 14:25 | 36.57753 | 23.40601 | 38069 ft | 435 kts | 347° |
| 2026-05-06 14:25 | 36.63703 | 23.39366 | 38070 ft | 435 kts | 347° |
| 2026-05-06 14:26 | 36.69673 | 23.38124 | 38053 ft | 435 kts | 347° |
| 2026-05-06 14:26 | 36.75665 | 23.36876 | 38057 ft | 436 kts | 347° |
| 2026-05-06 14:27 | 36.81610 | 23.35636 | 38074 ft | 436 kts | 347° |
| 2026-05-06 14:27 | 36.87591 | 23.34390 | 38073 ft | 436 kts | 347° |
| 2026-05-06 14:28 | 36.93586 | 23.33140 | 38068 ft | 436 kts | 347° |
| 2026-05-06 14:28 | 36.99574 | 23.31888 | 38061 ft | 436 kts | 347° |
| 2026-05-06 14:29 | 37.05562 | 23.30635 | 38059 ft | 436 kts | 347° |
| 2026-05-06 14:29 | 37.11516 | 23.29386 | 38068 ft | 436 kts | 347° |
| 2026-05-06 14:30 | 37.17507 | 23.28155 | 38071 ft | 436 kts | 347° |
| 2026-05-06 14:30 | 37.23495 | 23.26887 | 38060 ft | 436 kts | 347° |
| 2026-05-06 14:31 | 37.29449 | 23.25615 | 38063 ft | 435 kts | 347° |
| 2026-05-06 14:31 | 37.35441 | 23.24338 | 38066 ft | 435 kts | 347° |
| 2026-05-06 14:32 | 37.41411 | 23.23065 | 38056 ft | 435 kts | 347° |
| 2026-05-06 14:32 | 37.44437 | 23.22757 | 38038 ft | 440 kts | 2° |
| 2026-05-06 14:32 | 37.47444 | 23.23592 | 38070 ft | 446 kts | 18° |
| 2026-05-06 14:33 | 37.50216 | 23.25396 | 38071 ft | 453 kts | 33° |
| 2026-05-06 14:33 | 37.52546 | 23.28095 | 38075 ft | 458 kts | 44° |
| 2026-05-06 14:33 | 37.56731 | 23.34110 | 38062 ft | 460 kts | 46° |
| 2026-05-06 14:34 | 37.60906 | 23.40240 | 38062 ft | 461 kts | 45° |
| 2026-05-06 14:34 | 37.65139 | 23.46336 | 38054 ft | 461 kts | 45° |
| 2026-05-06 14:35 | 37.69388 | 23.52402 | 38061 ft | 461 kts | 45° |
| 2026-05-06 14:35 | 37.73571 | 23.58378 | 38060 ft | 461 kts | 45° |
| 2026-05-06 14:36 | 37.77816 | 23.64459 | 38065 ft | 461 kts | 45° |
| 2026-05-06 14:36 | 37.81738 | 23.70090 | 38069 ft | 460 kts | 45° |
| 2026-05-06 14:37 | 37.85981 | 23.76090 | 38061 ft | 457 kts | 38° |
| 2026-05-06 14:37 | 37.88607 | 23.78324 | 38095 ft | 445 kts | 20° |
| 2026-05-06 14:37 | 37.91489 | 23.79514 | 38064 ft | 439 kts | 6° |
| 2026-05-06 14:38 | 37.94500 | 23.79756 | 38077 ft | 431 kts | 352° |
| 2026-05-06 14:38 | 37.97477 | 23.79398 | 38078 ft | 430 kts | 350° |
| 2026-05-06 14:38 | 38.03425 | 23.78453 | 38071 ft | 430 kts | 349° |
| 2026-05-06 14:39 | 38.09365 | 23.77508 | 38057 ft | 430 kts | 350° |
| 2026-05-06 14:39 | 38.15319 | 23.76618 | 38046 ft | 430 kts | 350° |
| 2026-05-06 14:40 | 38.21261 | 23.75758 | 38051 ft | 429 kts | 350° |
| 2026-05-06 14:40 | 38.27210 | 23.74901 | 38056 ft | 430 kts | 351° |
| 2026-05-06 14:41 | 38.33161 | 23.74041 | 38050 ft | 430 kts | 351° |
| 2026-05-06 14:41 | 38.39108 | 23.73181 | 38053 ft | 430 kts | 351° |
| 2026-05-06 14:42 | 38.45030 | 23.72321 | 38052 ft | 431 kts | 351° |
| 2026-05-06 14:42 | 38.50984 | 23.71456 | 38047 ft | 431 kts | 351° |
| 2026-05-06 14:43 | 38.56938 | 23.70589 | 38050 ft | 431 kts | 351° |
| 2026-05-06 14:43 | 38.62907 | 23.69719 | 38052 ft | 431 kts | 351° |
| 2026-05-06 14:44 | 38.68876 | 23.68847 | 38052 ft | 431 kts | 351° |
| 2026-05-06 14:45 | 38.77840 | 23.67535 | 38041 ft | 432 kts | 351° |
| 2026-05-06 14:45 | 38.83805 | 23.66660 | 38054 ft | 431 kts | 351° |
| 2026-05-06 14:46 | 38.89721 | 23.65791 | 38050 ft | 431 kts | 351° |
| 2026-05-06 14:46 | 38.95680 | 23.64914 | 38054 ft | 430 kts | 351° |
| 2026-05-06 14:47 | 39.01634 | 23.64036 | 38050 ft | 430 kts | 351° |
| 2026-05-06 14:47 | 39.07578 | 23.63158 | 38048 ft | 430 kts | 351° |
| 2026-05-06 14:48 | 39.13518 | 23.62279 | 38053 ft | 430 kts | 351° |
| 2026-05-06 14:48 | 39.19402 | 23.61048 | 38041 ft | 426 kts | 340° |
| 2026-05-06 14:49 | 39.24920 | 23.58359 | 38047 ft | 424 kts | 336° |
| 2026-05-06 14:49 | 39.29509 | 23.56090 | 38051 ft | 425 kts | 337° |
| 2026-05-06 14:50 | 39.35047 | 23.53418 | 38058 ft | 425 kts | 337° |
| 2026-05-06 14:50 | 39.40590 | 23.50740 | 38048 ft | 425 kts | 337° |
| 2026-05-06 14:51 | 39.46137 | 23.48050 | 38051 ft | 426 kts | 337° |
| 2026-05-06 14:51 | 39.51692 | 23.45350 | 38054 ft | 426 kts | 337° |
| 2026-05-06 14:52 | 39.57242 | 23.42648 | 38046 ft | 427 kts | 337° |
| 2026-05-06 14:52 | 39.62799 | 23.39937 | 38042 ft | 427 kts | 337° |
| 2026-05-06 14:53 | 39.68334 | 23.37232 | 38047 ft | 427 kts | 337° |
| 2026-05-06 14:53 | 39.73906 | 23.34506 | 38044 ft | 427 kts | 337° |
| 2026-05-06 14:54 | 39.79470 | 23.31805 | 38049 ft | 427 kts | 337° |
| 2026-05-06 14:54 | 39.85040 | 23.29103 | 38047 ft | 427 kts | 337° |
| 2026-05-06 14:55 | 39.90608 | 23.26394 | 38047 ft | 427 kts | 337° |
| 2026-05-06 14:55 | 39.96172 | 23.23665 | 38043 ft | 427 kts | 337° |
| 2026-05-06 14:56 | 40.01695 | 23.20943 | 38043 ft | 427 kts | 337° |
| 2026-05-06 14:56 | 40.07261 | 23.18197 | 38036 ft | 427 kts | 337° |
| 2026-05-06 14:57 | 40.12822 | 23.15450 | 38037 ft | 427 kts | 337° |
| 2026-05-06 14:57 | 40.18370 | 23.12704 | 38035 ft | 427 kts | 337° |
| 2026-05-06 14:58 | 40.23919 | 23.09952 | 38027 ft | 427 kts | 337° |
| 2026-05-06 14:58 | 40.29475 | 23.07191 | 38024 ft | 427 kts | 337° |
| 2026-05-06 14:59 | 40.35039 | 23.04422 | 38022 ft | 427 kts | 337° |
| 2026-05-06 14:59 | 40.40599 | 23.01650 | 38026 ft | 427 kts | 337° |
| 2026-05-06 14:59 | 40.43465 | 23.00550 | 38007 ft | 431 kts | 349° |
| 2026-05-06 15:00 | 40.46463 | 23.00317 | 38029 ft | 435 kts | 359° |
| 2026-05-06 15:00 | 40.49482 | 23.00835 | 38013 ft | 440 kts | 12° |
| 2026-05-06 15:00 | 40.52404 | 23.02113 | 38041 ft | 443 kts | 17° |
| 2026-05-06 15:01 | 40.58164 | 23.05013 | 38028 ft | 444 kts | 17° |
| 2026-05-06 15:01 | 40.63941 | 23.07915 | 38016 ft | 445 kts | 17° |
| 2026-05-06 15:02 | 40.69757 | 23.10766 | 38011 ft | 445 kts | 17° |
| 2026-05-06 15:02 | 40.75555 | 23.13588 | 38011 ft | 444 kts | 17° |
| 2026-05-06 15:03 | 40.81318 | 23.16399 | 38001 ft | 444 kts | 17° |
| 2026-05-06 15:03 | 40.87121 | 23.19237 | 38002 ft | 444 kts | 17° |
| 2026-05-06 15:04 | 40.92920 | 23.22096 | 37998 ft | 444 kts | 17° |
| 2026-05-06 15:04 | 40.98431 | 23.25856 | 38013 ft | 451 kts | 32° |
| 2026-05-06 15:05 | 41.03150 | 23.31418 | 38006 ft | 455 kts | 40° |
| 2026-05-06 15:05 | 41.07693 | 23.37160 | 38003 ft | 454 kts | 39° |
| 2026-05-06 15:06 | 41.12307 | 23.42906 | 38003 ft | 454 kts | 39° |
| 2026-05-06 15:06 | 41.16936 | 23.48622 | 38011 ft | 453 kts | 39° |
| 2026-05-06 15:07 | 41.21552 | 23.54329 | 38005 ft | 453 kts | 39° |
| 2026-05-06 15:07 | 41.26124 | 23.59997 | 38006 ft | 451 kts | 39° |
| 2026-05-06 15:08 | 41.30703 | 23.65677 | 38026 ft | 452 kts | 39° |
| 2026-05-06 15:08 | 41.35312 | 23.71405 | 38025 ft | 452 kts | 39° |
| 2026-05-06 15:09 | 41.40362 | 23.76128 | 38039 ft | 438 kts | 14° |
| 2026-05-06 15:09 | 41.43307 | 23.76999 | 38019 ft | 431 kts | 360° |
| 2026-05-06 15:09 | 41.46276 | 23.76856 | 38050 ft | 425 kts | 351° |
| 2026-05-06 15:10 | 41.52171 | 23.75939 | 38037 ft | 426 kts | 350° |
| 2026-05-06 15:10 | 41.58024 | 23.75014 | 38027 ft | 427 kts | 351° |
| 2026-05-06 15:11 | 41.63937 | 23.74139 | 38036 ft | 427 kts | 351° |
| 2026-05-06 15:11 | 41.69861 | 23.73290 | 38040 ft | 428 kts | 351° |
| 2026-05-06 15:12 | 41.75793 | 23.72444 | 38040 ft | 429 kts | 351° |
| 2026-05-06 15:12 | 41.81743 | 23.71594 | 38051 ft | 430 kts | 351° |
| 2026-05-06 15:13 | 41.87705 | 23.70740 | 38049 ft | 430 kts | 351° |
| 2026-05-06 15:13 | 41.93615 | 23.69891 | 38056 ft | 430 kts | 351° |
| 2026-05-06 15:14 | 41.99565 | 23.69035 | 38040 ft | 430 kts | 351° |
| 2026-05-06 15:14 | 42.05515 | 23.68177 | 38057 ft | 430 kts | 351° |
| 2026-05-06 15:15 | 42.11470 | 23.67317 | 38036 ft | 430 kts | 351° |
| 2026-05-06 15:15 | 42.17429 | 23.66455 | 38038 ft | 430 kts | 351° |
| 2026-05-06 15:16 | 42.23372 | 23.65592 | 38039 ft | 430 kts | 351° |
| 2026-05-06 15:16 | 42.27310 | 23.65020 | 38040 ft | 429 kts | 351° |
| 2026-05-06 15:17 | 42.33184 | 23.63684 | 38041 ft | 425 kts | 343° |
| 2026-05-06 15:18 | 42.38585 | 23.61790 | 38021 ft | 426 kts | 342° |
| 2026-05-06 15:18 | 42.44310 | 23.59754 | 38008 ft | 426 kts | 343° |
| 2026-05-06 15:19 | 42.50048 | 23.57744 | 38005 ft | 425 kts | 343° |
| 2026-05-06 15:19 | 42.55786 | 23.55748 | 37992 ft | 426 kts | 343° |
| 2026-05-06 15:20 | 42.61530 | 23.53752 | 37998 ft | 426 kts | 343° |
| 2026-05-06 15:20 | 42.67275 | 23.51751 | 37989 ft | 427 kts | 343° |
| 2026-05-06 15:21 | 42.72995 | 23.49754 | 38002 ft | 427 kts | 343° |
| 2026-05-06 15:21 | 42.78757 | 23.47739 | 37994 ft | 427 kts | 343° |
| 2026-05-06 15:22 | 42.84520 | 23.45719 | 38000 ft | 427 kts | 343° |
| 2026-05-06 15:22 | 42.90280 | 23.43697 | 38002 ft | 427 kts | 343° |
| 2026-05-06 15:23 | 42.96002 | 23.41683 | 37989 ft | 428 kts | 343° |
| 2026-05-06 15:23 | 43.01763 | 23.39653 | 37991 ft | 427 kts | 343° |
| 2026-05-06 15:24 | 43.07527 | 23.37617 | 37994 ft | 428 kts | 343° |
| 2026-05-06 15:24 | 43.13298 | 23.35575 | 37974 ft | 428 kts | 343° |
| 2026-05-06 15:25 | 43.19054 | 23.33534 | 37973 ft | 427 kts | 343° |
| 2026-05-06 15:25 | 43.24932 | 23.32167 | 37980 ft | 430 kts | 352° |
| 2026-05-06 15:26 | 43.30911 | 23.31528 | 37961 ft | 431 kts | 352° |
| 2026-05-06 15:26 | 43.36890 | 23.30798 | 37953 ft | 431 kts | 352° |
| 2026-05-06 15:27 | 43.42825 | 23.30039 | 37965 ft | 431 kts | 352° |
| 2026-05-06 15:27 | 43.48823 | 23.29277 | 37947 ft | 432 kts | 352° |
| 2026-05-06 15:28 | 43.54808 | 23.28525 | 37955 ft | 431 kts | 352° |
| 2026-05-06 15:28 | 43.60790 | 23.27789 | 37951 ft | 431 kts | 352° |
| 2026-05-06 15:29 | 43.66729 | 23.27057 | 37947 ft | 431 kts | 352° |
| 2026-05-06 15:29 | 43.72713 | 23.26316 | 37947 ft | 431 kts | 352° |
| 2026-05-06 15:30 | 43.78687 | 23.25574 | 37947 ft | 431 kts | 352° |
| 2026-05-06 15:30 | 43.84620 | 23.24592 | 37938 ft | 428 kts | 343° |
| 2026-05-06 15:31 | 43.90354 | 23.22419 | 37947 ft | 427 kts | 341° |
| 2026-05-06 15:31 | 43.96031 | 23.20169 | 37943 ft | 427 kts | 341° |
| 2026-05-06 15:32 | 44.04610 | 23.16833 | 37944 ft | 427 kts | 341° |
| 2026-05-06 15:32 | 44.10335 | 23.14626 | 37948 ft | 427 kts | 341° |
| 2026-05-06 15:33 | 44.16058 | 23.12419 | 37946 ft | 427 kts | 341° |
| 2026-05-06 15:33 | 44.21792 | 23.10202 | 37946 ft | 427 kts | 341° |
| 2026-05-06 15:34 | 44.27521 | 23.07982 | 37946 ft | 427 kts | 341° |
| 2026-05-06 15:34 | 44.33220 | 23.05769 | 37947 ft | 427 kts | 341° |
| 2026-05-06 15:35 | 44.38954 | 23.03538 | 37947 ft | 427 kts | 341° |
| 2026-05-06 15:35 | 44.44689 | 23.01302 | 37945 ft | 427 kts | 341° |
| 2026-05-06 15:36 | 44.50418 | 22.99064 | 37950 ft | 427 kts | 341° |
| 2026-05-06 15:36 | 44.56152 | 22.96820 | 37952 ft | 428 kts | 341° |
| 2026-05-06 15:37 | 44.60922 | 22.94953 | 37943 ft | 428 kts | 341° |
| 2026-05-06 15:37 | 44.67596 | 22.92334 | 37950 ft | 428 kts | 341° |
| 2026-05-06 15:38 | 44.72356 | 22.90462 | 37950 ft | 428 kts | 341° |
| 2026-05-06 15:38 | 44.78089 | 22.88203 | 37950 ft | 428 kts | 341° |
| 2026-05-06 15:39 | 44.83833 | 22.85935 | 37954 ft | 428 kts | 341° |
| 2026-05-06 15:39 | 44.89553 | 22.83671 | 37965 ft | 427 kts | 341° |
| 2026-05-06 15:40 | 44.95264 | 22.81400 | 37962 ft | 428 kts | 340° |
| 2026-05-06 15:40 | 45.00993 | 22.79117 | 37971 ft | 428 kts | 340° |
| 2026-05-06 15:41 | 45.06720 | 22.76830 | 37975 ft | 427 kts | 340° |
| 2026-05-06 15:41 | 45.12435 | 22.74543 | 37975 ft | 427 kts | 340° |
| 2026-05-06 15:42 | 45.18168 | 22.72244 | 37985 ft | 428 kts | 340° |
| 2026-05-06 15:42 | 45.23903 | 22.69940 | 37982 ft | 428 kts | 340° |
| 2026-05-06 15:43 | 45.29608 | 22.67643 | 37976 ft | 428 kts | 340° |
| 2026-05-06 15:43 | 45.35342 | 22.65329 | 37989 ft | 428 kts | 340° |
| 2026-05-06 15:44 | 45.41088 | 22.63006 | 37985 ft | 429 kts | 340° |
| 2026-05-06 15:44 | 45.46832 | 22.60678 | 37976 ft | 429 kts | 340° |
| 2026-05-06 15:45 | 45.52570 | 22.58348 | 37961 ft | 429 kts | 340° |
| 2026-05-06 15:45 | 45.58312 | 22.56014 | 37964 ft | 429 kts | 340° |
| 2026-05-06 15:46 | 45.64004 | 22.53695 | 37966 ft | 428 kts | 340° |
| 2026-05-06 15:46 | 45.69738 | 22.51354 | 37965 ft | 428 kts | 340° |
| 2026-05-06 15:47 | 45.75470 | 22.49005 | 37961 ft | 428 kts | 339° |
| 2026-05-06 15:47 | 45.81211 | 22.46636 | 37954 ft | 428 kts | 339° |
| 2026-05-06 15:48 | 45.86906 | 22.44280 | 37949 ft | 429 kts | 339° |
| 2026-05-06 15:48 | 45.92638 | 22.41906 | 37952 ft | 428 kts | 339° |
| 2026-05-06 15:49 | 45.98363 | 22.39535 | 37954 ft | 429 kts | 339° |
| 2026-05-06 15:49 | 46.04103 | 22.37166 | 37951 ft | 429 kts | 339° |
| 2026-05-06 15:50 | 46.09838 | 22.34788 | 37955 ft | 429 kts | 339° |
| 2026-05-06 15:50 | 46.15564 | 22.32407 | 37949 ft | 428 kts | 339° |
| 2026-05-06 15:51 | 46.21294 | 22.30018 | 37951 ft | 429 kts | 339° |
| 2026-05-06 15:51 | 46.26998 | 22.27635 | 37958 ft | 430 kts | 339° |
| 2026-05-06 15:52 | 46.32752 | 22.25227 | 37956 ft | 431 kts | 339° |
| 2026-05-06 15:52 | 46.38516 | 22.22811 | 37957 ft | 432 kts | 339° |
| 2026-05-06 15:53 | 46.44284 | 22.20391 | 37942 ft | 432 kts | 339° |
| 2026-05-06 15:53 | 46.50070 | 22.17962 | 37950 ft | 433 kts | 339° |
| 2026-05-06 15:54 | 46.55866 | 22.15533 | 37950 ft | 434 kts | 339° |
| 2026-05-06 15:54 | 46.61681 | 22.13091 | 37959 ft | 435 kts | 339° |
| 2026-05-06 15:55 | 46.67451 | 22.10661 | 37952 ft | 435 kts | 339° |
| 2026-05-06 15:55 | 46.73268 | 22.08201 | 37943 ft | 435 kts | 339° |
| 2026-05-06 15:56 | 46.79074 | 22.05729 | 37946 ft | 435 kts | 339° |
| 2026-05-06 15:56 | 46.84885 | 22.03235 | 37945 ft | 435 kts | 339° |
| 2026-05-06 15:57 | 46.90701 | 22.00733 | 37943 ft | 435 kts | 339° |
| 2026-05-06 15:57 | 46.96515 | 21.98231 | 37941 ft | 436 kts | 339° |
| 2026-05-06 15:58 | 47.02339 | 21.95725 | 37943 ft | 436 kts | 339° |
| 2026-05-06 15:58 | 47.08128 | 21.93228 | 37949 ft | 436 kts | 339° |
| 2026-05-06 15:59 | 47.13956 | 21.90707 | 37939 ft | 437 kts | 339° |
| 2026-05-06 15:59 | 47.19799 | 21.88174 | 37939 ft | 437 kts | 339° |
| 2026-05-06 16:00 | 47.25645 | 21.85634 | 37929 ft | 438 kts | 338° |
| 2026-05-06 16:00 | 47.31482 | 21.83098 | 37921 ft | 437 kts | 339° |
| 2026-05-06 16:01 | 47.37320 | 21.80553 | 37934 ft | 438 kts | 339° |
| 2026-05-06 16:01 | 47.43165 | 21.77999 | 37918 ft | 439 kts | 339° |
| 2026-05-06 16:02 | 47.49025 | 21.75433 | 37915 ft | 439 kts | 339° |
| 2026-05-06 16:02 | 47.54843 | 21.72879 | 37912 ft | 439 kts | 339° |
| 2026-05-06 16:03 | 47.60717 | 21.70295 | 37921 ft | 440 kts | 339° |
| 2026-05-06 16:03 | 47.66589 | 21.67705 | 37921 ft | 440 kts | 339° |
| 2026-05-06 16:04 | 47.72468 | 21.65107 | 37918 ft | 440 kts | 339° |
| 2026-05-06 16:04 | 47.78346 | 21.62503 | 37916 ft | 441 kts | 339° |
| 2026-05-06 16:05 | 47.84181 | 21.59907 | 37916 ft | 441 kts | 339° |
| 2026-05-06 16:05 | 47.90061 | 21.57281 | 37912 ft | 441 kts | 339° |
| 2026-05-06 16:06 | 47.95929 | 21.54654 | 37915 ft | 441 kts | 339° |
| 2026-05-06 16:06 | 48.01819 | 21.52012 | 37913 ft | 441 kts | 339° |
| 2026-05-06 16:07 | 48.07700 | 21.49367 | 37909 ft | 441 kts | 339° |
| 2026-05-06 16:07 | 48.13556 | 21.46727 | 37914 ft | 442 kts | 339° |
| 2026-05-06 16:08 | 48.19444 | 21.44066 | 37910 ft | 442 kts | 339° |
| 2026-05-06 16:08 | 48.25323 | 21.41404 | 37909 ft | 442 kts | 339° |
| 2026-05-06 16:09 | 48.30553 | 21.39029 | 37903 ft | 442 kts | 339° |
| 2026-05-06 16:09 | 48.36440 | 21.36351 | 37898 ft | 442 kts | 339° |
| 2026-05-06 16:10 | 48.42304 | 21.33676 | 37899 ft | 443 kts | 339° |
| 2026-05-06 16:10 | 48.48202 | 21.30979 | 37894 ft | 443 kts | 339° |
| 2026-05-06 16:11 | 48.54150 | 21.28392 | 37883 ft | 446 kts | 342° |
| 2026-05-06 16:11 | 48.60224 | 21.26402 | 37894 ft | 447 kts | 344° |
| 2026-05-06 16:12 | 48.66325 | 21.24505 | 37887 ft | 448 kts | 344° |
| 2026-05-06 16:12 | 48.72382 | 21.22562 | 37884 ft | 448 kts | 343° |
| 2026-05-06 16:13 | 48.78475 | 21.20568 | 37887 ft | 448 kts | 343° |
| 2026-05-06 16:13 | 48.84574 | 21.18562 | 37889 ft | 449 kts | 343° |
| 2026-05-06 16:14 | 48.90673 | 21.16554 | 37894 ft | 449 kts | 343° |
| 2026-05-06 16:14 | 48.96806 | 21.14531 | 37890 ft | 450 kts | 343° |
| 2026-05-06 16:15 | 49.02888 | 21.12353 | 37895 ft | 450 kts | 342° |
| 2026-05-06 16:15 | 49.08970 | 21.10052 | 37886 ft | 450 kts | 342° |
| 2026-05-06 16:16 | 49.15024 | 21.07810 | 37888 ft | 450 kts | 342° |
| 2026-05-06 16:16 | 49.21128 | 21.05582 | 37889 ft | 451 kts | 342° |
| 2026-05-06 16:17 | 49.27233 | 21.03346 | 37871 ft | 451 kts | 342° |
| 2026-05-06 16:17 | 49.33345 | 21.01087 | 37891 ft | 450 kts | 341° |
| 2026-05-06 16:18 | 49.39260 | 20.98060 | 37880 ft | 447 kts | 335° |
| 2026-05-06 16:18 | 49.45040 | 20.94678 | 37876 ft | 447 kts | 335° |
| 2026-05-06 16:19 | 49.50882 | 20.91274 | 37877 ft | 448 kts | 335° |
| 2026-05-06 16:19 | 49.56737 | 20.87922 | 37863 ft | 449 kts | 335° |
| 2026-05-06 16:20 | 49.62606 | 20.84583 | 37863 ft | 449 kts | 335° |
| 2026-05-06 16:20 | 49.68476 | 20.81240 | 37856 ft | 449 kts | 335° |
| 2026-05-06 16:21 | 49.74296 | 20.77915 | 37861 ft | 449 kts | 335° |
| 2026-05-06 16:21 | 49.80175 | 20.74545 | 37851 ft | 449 kts | 335° |
| 2026-05-06 16:22 | 49.86057 | 20.71165 | 37852 ft | 450 kts | 335° |
| 2026-05-06 16:22 | 49.91888 | 20.67806 | 37852 ft | 450 kts | 335° |
| 2026-05-06 16:23 | 49.97759 | 20.64414 | 37853 ft | 450 kts | 335° |
| 2026-05-06 16:23 | 50.03623 | 20.61018 | 37846 ft | 450 kts | 335° |
| 2026-05-06 16:24 | 50.09495 | 20.57608 | 37846 ft | 450 kts | 335° |
| 2026-05-06 16:24 | 50.14739 | 20.54555 | 37844 ft | 451 kts | 335° |
| 2026-05-06 16:25 | 50.20589 | 20.51142 | 37844 ft | 451 kts | 335° |
| 2026-05-06 16:25 | 50.26468 | 20.47702 | 37840 ft | 451 kts | 335° |
| 2026-05-06 16:26 | 50.32335 | 20.44260 | 37847 ft | 451 kts | 335° |
| 2026-05-06 16:26 | 50.38235 | 20.40789 | 37837 ft | 451 kts | 335° |
| 2026-05-06 16:27 | 50.44112 | 20.37323 | 37835 ft | 452 kts | 335° |
| 2026-05-06 16:27 | 50.49992 | 20.33845 | 37832 ft | 452 kts | 335° |
| 2026-05-06 16:28 | 50.54891 | 20.30942 | 37833 ft | 452 kts | 335° |
| 2026-05-06 16:28 | 50.60785 | 20.27437 | 37830 ft | 453 kts | 335° |
| 2026-05-06 16:29 | 50.66700 | 20.23995 | 37817 ft | 454 kts | 337° |
| 2026-05-06 16:29 | 50.72732 | 20.20981 | 37831 ft | 455 kts | 339° |
| 2026-05-06 16:30 | 50.77762 | 20.18523 | 37817 ft | 456 kts | 338° |
| 2026-05-06 16:30 | 50.84840 | 20.14976 | 37823 ft | 456 kts | 338° |
| 2026-05-06 16:31 | 50.90843 | 20.11935 | 37816 ft | 456 kts | 338° |
| 2026-05-06 16:31 | 50.96890 | 20.08849 | 37810 ft | 456 kts | 338° |
| 2026-05-06 16:32 | 51.02931 | 20.05746 | 37804 ft | 456 kts | 338° |
| 2026-05-06 16:32 | 51.08992 | 20.02627 | 37800 ft | 456 kts | 338° |
| 2026-05-06 16:33 | 51.15010 | 19.99552 | 37801 ft | 457 kts | 338° |
| 2026-05-06 16:34 | 51.24097 | 19.94933 | 37797 ft | 456 kts | 338° |
| 2026-05-06 16:34 | 51.30139 | 19.91798 | 37791 ft | 456 kts | 338° |
| 2026-05-06 16:35 | 51.36147 | 19.88672 | 37794 ft | 456 kts | 338° |
| 2026-05-06 16:35 | 51.42201 | 19.85505 | 37785 ft | 456 kts | 338° |
| 2026-05-06 16:36 | 51.48231 | 19.82357 | 37780 ft | 456 kts | 338° |
| 2026-05-06 16:36 | 51.54227 | 19.79242 | 37782 ft | 455 kts | 338° |
| 2026-05-06 16:37 | 51.60249 | 19.76063 | 37776 ft | 455 kts | 338° |
| 2026-05-06 16:37 | 51.66276 | 19.72870 | 37775 ft | 455 kts | 338° |
| 2026-05-06 16:38 | 51.72312 | 19.69672 | 37784 ft | 458 kts | 336° |
| 2026-05-06 16:38 | 51.78374 | 19.66464 | 37780 ft | 459 kts | 336° |
| 2026-05-06 16:39 | 51.84484 | 19.63362 | 37779 ft | 462 kts | 338° |
| 2026-05-06 16:39 | 51.90619 | 19.60396 | 37770 ft | 463 kts | 338° |
| 2026-05-06 16:40 | 51.96797 | 19.57367 | 37764 ft | 464 kts | 338° |
| 2026-05-06 16:40 | 52.02972 | 19.54322 | 37762 ft | 464 kts | 338° |
| 2026-05-06 16:41 | 52.09157 | 19.51267 | 37758 ft | 464 kts | 338° |
| 2026-05-06 16:41 | 52.15339 | 19.48207 | 37758 ft | 465 kts | 338° |
| 2026-05-06 16:42 | 52.21533 | 19.45133 | 37759 ft | 465 kts | 338° |
| 2026-05-06 16:42 | 52.27680 | 19.42072 | 37758 ft | 465 kts | 338° |
| 2026-05-06 16:43 | 52.33878 | 19.38976 | 37761 ft | 465 kts | 338° |
| 2026-05-06 16:43 | 52.40076 | 19.35872 | 37750 ft | 465 kts | 338° |
| 2026-05-06 16:44 | 52.46277 | 19.32756 | 37756 ft | 465 kts | 338° |
| 2026-05-06 16:44 | 52.52479 | 19.29632 | 37759 ft | 466 kts | 338° |
| 2026-05-06 16:45 | 52.58676 | 19.26500 | 37760 ft | 466 kts | 338° |
| 2026-05-06 16:45 | 52.64837 | 19.23377 | 37757 ft | 466 kts | 338° |
| 2026-05-06 16:46 | 52.71040 | 19.20221 | 37762 ft | 466 kts | 338° |
| 2026-05-06 16:46 | 52.77248 | 19.17055 | 37760 ft | 467 kts | 338° |
| 2026-05-06 16:47 | 52.83460 | 19.13876 | 37755 ft | 467 kts | 338° |
| 2026-05-06 16:47 | 52.89632 | 19.10708 | 37758 ft | 467 kts | 338° |
| 2026-05-06 16:48 | 52.95844 | 19.07510 | 37756 ft | 467 kts | 338° |
| 2026-05-06 16:48 | 53.02061 | 19.04300 | 37761 ft | 467 kts | 337° |
| 2026-05-06 16:49 | 53.08268 | 19.01086 | 37760 ft | 467 kts | 337° |
| 2026-05-06 16:49 | 53.14494 | 18.97874 | 37756 ft | 467 kts | 338° |
| 2026-05-06 16:50 | 53.20676 | 18.94686 | 37760 ft | 467 kts | 337° |
| 2026-05-06 16:50 | 53.26882 | 18.91435 | 37755 ft | 468 kts | 337° |
| 2026-05-06 16:51 | 53.33100 | 18.88157 | 37765 ft | 468 kts | 337° |
| 2026-05-06 16:51 | 53.39311 | 18.84879 | 37756 ft | 468 kts | 337° |
| 2026-05-06 16:52 | 53.45495 | 18.81607 | 37762 ft | 469 kts | 337° |
| 2026-05-06 16:52 | 53.51704 | 18.78307 | 37767 ft | 469 kts | 336° |
| 2026-05-06 16:53 | 53.57745 | 18.74240 | 37784 ft | 465 kts | 330° |
| 2026-05-06 16:53 | 53.63642 | 18.69841 | 37782 ft | 466 kts | 330° |
| 2026-05-06 16:54 | 53.69624 | 18.65463 | 37782 ft | 467 kts | 331° |
| 2026-05-06 16:54 | 53.75597 | 18.61140 | 37789 ft | 468 kts | 331° |
| 2026-05-06 16:55 | 53.81542 | 18.56798 | 37793 ft | 468 kts | 331° |
| 2026-05-06 16:55 | 53.87527 | 18.52398 | 37805 ft | 468 kts | 331° |
| 2026-05-06 16:56 | 53.93515 | 18.47984 | 37816 ft | 469 kts | 331° |
| 2026-05-06 16:56 | 53.99502 | 18.43559 | 37809 ft | 469 kts | 331° |
| 2026-05-06 16:57 | 54.05481 | 18.39127 | 37818 ft | 468 kts | 331° |
| 2026-05-06 16:57 | 54.11343 | 18.34768 | 37825 ft | 468 kts | 331° |
| 2026-05-06 16:58 | 54.17311 | 18.30316 | 37832 ft | 468 kts | 331° |
| 2026-05-06 16:58 | 54.23269 | 18.25856 | 37833 ft | 467 kts | 331° |
| 2026-05-06 16:59 | 54.29208 | 18.21399 | 37835 ft | 466 kts | 330° |
| 2026-05-06 16:59 | 54.35154 | 18.16898 | 37835 ft | 466 kts | 330° |
| 2026-05-06 17:00 | 54.41038 | 18.12403 | 37841 ft | 465 kts | 330° |
| 2026-05-06 17:00 | 54.46967 | 18.07861 | 37844 ft | 465 kts | 330° |
| 2026-05-06 17:01 | 54.52878 | 18.03321 | 37852 ft | 465 kts | 330° |
| 2026-05-06 17:01 | 54.58799 | 17.98761 | 37866 ft | 466 kts | 330° |
| 2026-05-06 17:02 | 54.64669 | 17.94226 | 37861 ft | 466 kts | 330° |
| 2026-05-06 17:02 | 54.70600 | 17.89628 | 37861 ft | 466 kts | 330° |
| 2026-05-06 17:03 | 54.76514 | 17.85030 | 37870 ft | 466 kts | 330° |
| 2026-05-06 17:03 | 54.82442 | 17.80401 | 37867 ft | 466 kts | 330° |
| 2026-05-06 17:04 | 54.88347 | 17.75753 | 37871 ft | 466 kts | 330° |
| 2026-05-06 17:04 | 54.94257 | 17.71089 | 37872 ft | 466 kts | 330° |
| 2026-05-06 17:05 | 55.00167 | 17.66450 | 37876 ft | 466 kts | 331° |
| 2026-05-06 17:05 | 55.06078 | 17.61956 | 37885 ft | 466 kts | 331° |
| 2026-05-06 17:06 | 55.12022 | 17.57429 | 37870 ft | 466 kts | 331° |
| 2026-05-06 17:06 | 55.17961 | 17.52868 | 37888 ft | 466 kts | 331° |
| 2026-05-06 17:07 | 55.23893 | 17.48263 | 37885 ft | 466 kts | 331° |
| 2026-05-06 17:07 | 55.29797 | 17.43558 | 37903 ft | 466 kts | 330° |
| 2026-05-06 17:08 | 55.35694 | 17.38832 | 37904 ft | 466 kts | 330° |
| 2026-05-06 17:08 | 55.41570 | 17.34121 | 37907 ft | 466 kts | 330° |
| 2026-05-06 17:09 | 55.47479 | 17.29375 | 37912 ft | 466 kts | 330° |
| 2026-05-06 17:09 | 55.53389 | 17.24612 | 37912 ft | 466 kts | 330° |
| 2026-05-06 17:10 | 55.59288 | 17.19843 | 37922 ft | 467 kts | 330° |
| 2026-05-06 17:10 | 55.64942 | 17.14343 | 37923 ft | 458 kts | 318° |
| 2026-05-06 17:11 | 55.69574 | 17.06835 | 37922 ft | 454 kts | 311° |
| 2026-05-06 17:11 | 55.74094 | 16.99017 | 37922 ft | 454 kts | 311° |
| 2026-05-06 17:12 | 55.78627 | 16.91224 | 37933 ft | 453 kts | 311° |
| 2026-05-06 17:12 | 55.83180 | 16.83447 | 37931 ft | 454 kts | 311° |
| 2026-05-06 17:13 | 55.87732 | 16.75671 | 37936 ft | 453 kts | 311° |
| 2026-05-06 17:13 | 55.92281 | 16.67878 | 37942 ft | 453 kts | 311° |
| 2026-05-06 17:14 | 55.96828 | 16.60057 | 37946 ft | 453 kts | 311° |
| 2026-05-06 17:14 | 56.01369 | 16.52218 | 37941 ft | 454 kts | 311° |
| 2026-05-06 17:14 | 56.03622 | 16.48317 | 37343 ft | 461 kts | 311° |
| 2026-05-06 17:15 | 56.05917 | 16.44336 | 36713 ft | 457 kts | 311° |
| 2026-05-06 17:15 | 56.08193 | 16.40386 | 35990 ft | 456 kts | 311° |
| 2026-05-06 17:15 | 56.10472 | 16.36423 | 35203 ft | 456 kts | 311° |
| 2026-05-06 17:15 | 56.12749 | 16.32454 | 34364 ft | 459 kts | 311° |
| 2026-05-06 17:16 | 56.15048 | 16.28439 | 33374 ft | 462 kts | 312° |
| 2026-05-06 17:16 | 56.17355 | 16.24402 | 32396 ft | 463 kts | 312° |
| 2026-05-06 17:16 | 56.19668 | 16.20349 | 31402 ft | 464 kts | 312° |
| 2026-05-06 17:16 | 56.21985 | 16.16282 | 30392 ft | 465 kts | 312° |
| 2026-05-06 17:17 | 56.24300 | 16.12213 | 29340 ft | 466 kts | 312° |
| 2026-05-06 17:17 | 56.25809 | 16.09559 | 29165 ft | 455 kts | 312° |
| 2026-05-06 17:17 | 56.28742 | 16.04403 | 28961 ft | 430 kts | 312° |
| 2026-05-06 17:17 | 56.30829 | 16.00728 | 28935 ft | 411 kts | 312° |
| 2026-05-06 17:18 | 56.32824 | 15.97204 | 28916 ft | 393 kts | 311° |
| 2026-05-06 17:18 | 56.34750 | 15.93791 | 28054 ft | 390 kts | 311° |
| 2026-05-06 17:18 | 56.36035 | 15.91505 | 27149 ft | 395 kts | 311° |
| 2026-05-06 17:18 | 56.38019 | 15.87963 | 25820 ft | 402 kts | 312° |
| 2026-05-06 17:19 | 56.40015 | 15.84396 | 24571 ft | 405 kts | 312° |
| 2026-05-06 17:19 | 56.42016 | 15.80823 | 23374 ft | 405 kts | 313° |
| 2026-05-06 17:19 | 56.44018 | 15.77247 | 22020 ft | 404 kts | 313° |
| 2026-05-06 17:19 | 56.46007 | 15.73692 | 20767 ft | 401 kts | 313° |
| 2026-05-06 17:20 | 56.47995 | 15.70131 | 19606 ft | 406 kts | 313° |
| 2026-05-06 17:20 | 56.50017 | 15.66502 | 18505 ft | 407 kts | 313° |
| 2026-05-06 17:20 | 56.52002 | 15.62938 | 17297 ft | 398 kts | 313° |
| 2026-05-06 17:20 | 56.53948 | 15.59440 | 16103 ft | 389 kts | 313° |
| 2026-05-06 17:21 | 56.55748 | 15.55866 | 15594 ft | 378 kts | 305° |
| 2026-05-06 17:21 | 56.57192 | 15.51939 | 15357 ft | 384 kts | 301° |
| 2026-05-06 17:21 | 56.58648 | 15.47764 | 14755 ft | 398 kts | 301° |
| 2026-05-06 17:21 | 56.60120 | 15.43517 | 13977 ft | 395 kts | 301° |
| 2026-05-06 17:22 | 56.61567 | 15.39376 | 12958 ft | 380 kts | 302° |
| 2026-05-06 17:22 | 56.62960 | 15.35419 | 12082 ft | 363 kts | 302° |
| 2026-05-06 17:22 | 56.64304 | 15.31602 | 11302 ft | 358 kts | 302° |
| 2026-05-06 17:22 | 56.65651 | 15.27767 | 10687 ft | 358 kts | 303° |
| 2026-05-06 17:23 | 56.66951 | 15.24056 | 10510 ft | 339 kts | 303° |
| 2026-05-06 17:23 | 56.68186 | 15.20523 | 10320 ft | 322 kts | 303° |
| 2026-05-06 17:23 | 56.69354 | 15.17177 | 10255 ft | 303 kts | 303° |
| 2026-05-06 17:23 | 56.70453 | 15.14023 | 10178 ft | 288 kts | 303° |
| 2026-05-06 17:24 | 56.71480 | 15.11073 | 10060 ft | 271 kts | 303° |
| 2026-05-06 17:24 | 56.72409 | 15.08193 | 9761 ft | 261 kts | 292° |
| 2026-05-06 17:24 | 56.72708 | 15.04884 | 8891 ft | 272 kts | 270° |
| 2026-05-06 17:24 | 56.72578 | 15.01429 | 8155 ft | 275 kts | 266° |
| 2026-05-06 17:25 | 56.72394 | 14.97954 | 7521 ft | 275 kts | 266° |
| 2026-05-06 17:25 | 56.72204 | 14.94514 | 6917 ft | 273 kts | 266° |
| 2026-05-06 17:25 | 56.72012 | 14.91068 | 6324 ft | 272 kts | 266° |
| 2026-05-06 17:25 | 56.71822 | 14.87650 | 5703 ft | 270 kts | 265° |
| 2026-05-06 17:26 | 56.71646 | 14.84306 | 5457 ft | 256 kts | 265° |
| 2026-05-06 17:26 | 56.71488 | 14.81167 | 5125 ft | 247 kts | 265° |
| 2026-05-06 17:26 | 56.71342 | 14.77987 | 4272 ft | 259 kts | 265° |
| 2026-05-06 17:26 | 56.71212 | 14.74646 | 3636 ft | 267 kts | 265° |
| 2026-05-06 17:27 | 56.71102 | 14.71369 | 3475 ft | 250 kts | 265° |
| 2026-05-06 17:27 | 56.71005 | 14.68320 | 3338 ft | 233 kts | 265° |
| 2026-05-06 17:27 | 56.71018 | 14.65442 | 3226 ft | 225 kts | 282° |
| 2026-05-06 17:27 | 56.71807 | 14.63117 | 3110 ft | 215 kts | 326° |
| 2026-05-06 17:28 | 56.73174 | 14.62382 | 2860 ft | 209 kts | 11° |
| 2026-05-06 17:28 | 56.74459 | 14.63477 | 2849 ft | 207 kts | 36° |
| 2026-05-06 17:28 | 56.75709 | 14.64803 | 2811 ft | 205 kts | 28° |
| 2026-05-06 17:28 | 56.76984 | 14.65744 | 2777 ft | 191 kts | 22° |
| 2026-05-06 17:29 | 56.78232 | 14.66519 | 2763 ft | 188 kts | 19° |
| 2026-05-06 17:29 | 56.79484 | 14.67123 | 2766 ft | 187 kts | 15° |
| 2026-05-06 17:29 | 56.80761 | 14.67668 | 2770 ft | 190 kts | 15° |
| 2026-05-06 17:29 | 56.82055 | 14.68211 | 2616 ft | 194 kts | 15° |
| 2026-05-06 17:30 | 56.83354 | 14.68760 | 2358 ft | 188 kts | 15° |
| 2026-05-06 17:30 | 56.84592 | 14.69282 | 2102 ft | 176 kts | 15° |
| 2026-05-06 17:30 | 56.85720 | 14.69757 | 1917 ft | 158 kts | 15° |
| 2026-05-06 17:30 | 56.86743 | 14.70186 | 1656 ft | 144 kts | 16° |
| 2026-05-06 17:31 | 56.87699 | 14.70593 | 1455 ft | 139 kts | 16° |
| 2026-05-06 17:31 | 56.88656 | 14.70997 | 1302 ft | 143 kts | 16° |
| 2026-05-06 17:31 | 56.89633 | 14.71413 | 1112 ft | 145 kts | 15° |
| 2026-05-06 17:31 | 56.90611 | 14.71823 | 919 ft | 142 kts | 16° |
| 2026-05-06 17:32 | 56.91582 | 14.72227 | 721 ft | 144 kts | 15° |
| 2026-05-06 17:32 | 56.92544 | 14.72634 | 615 ft | 133 kts | 15° |
| 2026-05-06 17:32 | 56.93325 | 14.72967 | 600 ft | 94 kts | 13° |
| 2026-05-06 17:32 | 56.93711 | 14.73132 | 609 ft | 35 kts | 12° |
| 2026-05-06 17:33 | 56.93812 | 14.73174 | 609 ft | 7 kts | 11° |
| 2026-05-06 17:33 | 56.93839 | 14.73110 | 615 ft | 8 kts | 285° |
| 2026-05-06 17:33 | 56.93826 | 14.72988 | 622 ft | 11 kts | 211° |
| 2026-05-06 17:33 | 56.93751 | 14.72958 | 618 ft | 13 kts | 190° |
| 2026-05-06 17:34 | 56.93651 | 14.72976 | 614 ft | 17 kts | 141° |
| 2026-05-06 17:34 | 56.93543 | 14.73059 | 604 ft | 19 kts | 190° |
| 2026-05-06 17:34 | 56.93394 | 14.72998 | 600 ft | 25 kts | 193° |
| 2026-05-06 17:34 | 56.93221 | 14.72925 | 603 ft | 25 kts | 193° |
| 2026-05-06 17:35 | 56.93056 | 14.72854 | 605 ft | 24 kts | 193° |
| 2026-05-06 17:35 | 56.92896 | 14.72787 | 607 ft | 24 kts | 192° |
| 2026-05-06 17:35 | 56.92727 | 14.72715 | 605 ft | 27 kts | 193° |
| 2026-05-06 17:36 | 56.92569 | 14.72884 | 614 ft | 14 kts | 103° |
| 2026-05-06 17:36 | 56.92566 | 14.73019 | 605 ft | 9 kts | 78° |
| 2026-05-06 17:36 | 56.92542 | 14.73073 | 610 ft | 5 kts | 141° |
| 2026-05-06 17:36 | 56.92538 | 14.73080 | 613 ft | 0 kts | 141° |